Time;durP1;ratioP1;P1;durP2;ratioP2;P2;SDS_P1;SDS_P2;PMS_P1;PMS_P2;Temp;Humidity;BMP_temperature;BMP_pressure;BME280_temperature;BME280_humidity;BME280_pressure;Samples;Min_cycle;Max_cycle;Signal;HPM_P1;HPM_P2
2022/12/17 13:06:55;;;;;;;47.97;28.63;;;1.30;99.90;;;;;;5022069;28;20052;-62
2022/12/17 13:09:27;;;;;;;43.13;25.25;;;1.30;99.90;;;;;;5015836;28;20042;-62
2022/12/17 13:11:56;;;;;;;44.47;26.98;;;1.30;99.90;;;;;;5008496;28;20740;-62
2022/12/17 13:14:25;;;;;;;46.97;26.60;;;1.30;99.90;;;;;;5008623;28;20133;-62
2022/12/17 13:17:11;;;;;;;45.05;25.33;;;1.30;99.90;;;;;;5020585;28;20433;-62
2022/12/17 13:19:40;;;;;;;44.33;26.38;;;1.30;99.90;;;;;;5021361;28;20099;-60
2022/12/17 13:22:16;;;;;;;54.30;28.40;;;1.20;99.90;;;;;;5013221;28;20083;-60
2022/12/17 13:24:47;;;;;;;48.92;26.23;;;1.20;99.90;;;;;;5048860;28;20064;-62
2022/12/17 13:27:30;;;;;;;48.72;26.52;;;1.20;99.90;;;;;;5067570;28;20559;-61
2022/12/17 13:30:09;;;;;;;46.47;26.30;;;1.20;99.90;;;;;;5031722;28;20102;-61
2022/12/17 13:32:58;;;;;;;47.40;24.23;;;1.20;99.90;;;;;;5044980;28;20040;-61
2022/12/17 13:36:01;;;;;;;50.92;26.10;;;1.20;99.90;;;;;;5063828;28;20041;-61
2022/12/17 13:38:39;;;;;;;50.65;27.55;;;1.20;99.90;;;;;;5051289;28;20127;-61
2022/12/17 13:41:11;;;;;;;44.83;27.15;;;1.10;99.90;;;;;;5069397;28;20147;-61
2022/12/17 13:43:43;;;;;;;48.00;26.50;;;1.10;99.90;;;;;;5069072;28;20567;-61
2022/12/17 13:46:20;;;;;;;50.38;28.48;;;1.10;99.90;;;;;;5066678;28;20040;-61
2022/12/17 13:49:00;;;;;;;50.15;29.10;;;1.00;99.90;;;;;;5057511;28;20044;-61
2022/12/17 13:51:31;;;;;;;48.97;29.70;;;1.00;99.90;;;;;;5068984;28;20464;-61
2022/12/17 13:53:59;;;;;;;48.85;29.25;;;1.00;99.90;;;;;;5068599;28;20071;-61
2022/12/17 13:56:36;;;;;;;48.33;27.40;;;1.00;99.90;;;;;;5069646;28;20032;-61
2022/12/17 13:59:04;;;;;;;50.40;29.55;;;1.00;99.90;;;;;;5052625;28;20044;-61
2022/12/17 14:01:31;;;;;;;50.65;26.95;;;1.00;99.90;;;;;;5068898;28;20040;-61
2022/12/17 14:04:01;;;;;;;49.03;28.10;;;1.00;99.90;;;;;;5069441;28;20043;-61
2022/12/17 14:06:34;;;;;;;49.53;26.60;;;1.00;99.90;;;;;;5068770;28;20738;-62
2022/12/17 14:09:02;;;;;;;49.42;27.20;;;1.00;99.90;;;;;;5066310;28;20040;-61
2022/12/17 14:14:34;;;;;;;52.60;28.25;;;0.90;99.90;;;;;;5058226;28;20095;-62
2022/12/17 14:17:00;;;;;;;54.60;30.42;;;0.90;99.90;;;;;;5051015;28;20045;-62
2022/12/17 14:19:27;;;;;;;57.00;30.88;;;0.90;99.90;;;;;;5049428;28;20047;-63
2022/12/17 14:21:54;;;;;;;51.92;28.58;;;0.90;99.90;;;;;;5065314;28;20115;-62
2022/12/17 14:24:25;;;;;;;52.75;30.60;;;0.90;99.90;;;;;;5069000;28;20109;-61
2022/12/17 14:26:59;;;;;;;53.25;28.45;;;0.80;99.90;;;;;;5051257;28;20541;-61
2022/12/17 14:29:30;;;;;;;59.13;30.50;;;0.80;99.90;;;;;;5067767;28;20570;-61
2022/12/17 14:32:01;;;;;;;59.80;31.20;;;0.70;99.90;;;;;;5051261;28;20044;-61
2022/12/17 14:34:28;;;;;;;55.22;30.00;;;0.70;99.90;;;;;;5063127;28;20127;-61
2022/12/17 14:36:59;;;;;;;58.05;28.77;;;0.70;99.90;;;;;;5050568;28;20080;-61
2022/12/17 14:39:31;;;;;;;62.65;33.03;;;0.60;99.90;;;;;;5071042;28;20562;-62
2022/12/17 14:42:24;;;;;;;56.95;30.77;;;0.60;99.90;;;;;;5072679;28;20037;-61
2022/12/17 14:45:25;;;;;;;60.40;31.77;;;0.60;99.90;;;;;;5054914;28;20029;-62
2022/12/17 14:48:05;;;;;;;59.05;32.35;;;0.60;99.90;;;;;;5041795;28;20056;-61
2022/12/17 14:50:35;;;;;;;63.22;33.05;;;0.50;99.90;;;;;;5051204;28;20064;-61
2022/12/17 14:53:22;;;;;;;57.58;33.38;;;0.50;99.90;;;;;;5054190;28;20656;-62
2022/12/17 14:55:54;;;;;;;63.78;33.83;;;0.50;99.90;;;;;;5054513;28;20401;-61
2022/12/17 14:58:22;;;;;;;55.75;32.42;;;0.40;99.90;;;;;;5071942;28;20044;-61
2022/12/17 15:00:49;;;;;;;58.15;33.20;;;0.40;99.90;;;;;;5053994;28;20048;-61
2022/12/17 15:03:26;;;;;;;63.65;34.67;;;0.30;99.90;;;;;;5071406;28;20083;-61
2022/12/17 15:05:57;;;;;;;65.57;34.40;;;0.30;99.90;;;;;;5053140;28;20059;-61
2022/12/17 15:08:24;;;;;;;63.75;34.00;;;0.30;99.90;;;;;;5053231;28;20045;-62
2022/12/17 15:10:50;;;;;;;63.40;32.50;;;0.20;99.90;;;;;;5053551;28;20048;-61
2022/12/17 15:13:16;;;;;;;64.90;33.42;;;0.20;99.90;;;;;;5059502;28;20409;-61
2022/12/17 15:15:41;;;;;;;62.55;33.58;;;0.20;99.90;;;;;;5071049;28;20044;-62
2022/12/17 15:18:07;;;;;;;61.97;33.35;;;0.20;99.90;;;;;;5036046;28;20048;-61
2022/12/17 15:20:33;;;;;;;60.05;34.15;;;0.10;99.90;;;;;;5051416;28;20113;-61
2022/12/17 15:23:00;;;;;;;72.88;36.15;;;0.10;99.90;;;;;;5054163;28;20098;-61
2022/12/17 15:25:26;;;;;;;62.30;33.72;;;0.10;99.90;;;;;;5017254;28;20140;-61
2022/12/17 15:27:52;;;;;;;65.35;35.22;;;0.10;99.90;;;;;;5031256;28;20124;-61
2022/12/17 15:30:18;;;;;;;67.60;35.60;;;0.00;99.90;;;;;;5031522;28;20026;-61
2022/12/17 15:32:44;;;;;;;69.55;37.33;;;0.00;99.90;;;;;;5030520;28;20538;-62
2022/12/17 15:35:11;;;;;;;60.45;32.67;;;0.00;99.90;;;;;;5032545;28;20080;-61
2022/12/17 15:37:37;;;;;;;62.25;35.58;;;0.00;99.90;;;;;;5031430;28;20107;-61
2022/12/17 15:40:04;;;;;;;62.75;34.17;;;-0.10;99.90;;;;;;5030507;28;20144;-61
2022/12/17 15:45:14;;;;;;;66.88;36.15;;;-0.10;99.90;;;;;;5031966;28;20444;-61
2022/12/17 15:47:40;;;;;;;63.13;34.75;;;-0.10;99.90;;;;;;5031215;28;20120;-61
2022/12/17 15:50:06;;;;;;;67.53;35.95;;;-0.10;99.90;;;;;;5031142;28;20044;-61
2022/12/17 15:52:32;;;;;;;66.47;36.90;;;-0.10;99.90;;;;;;5013031;28;20045;-61
2022/12/17 15:54:58;;;;;;;69.40;38.65;;;-0.20;99.90;;;;;;5030498;28;20390;-61
2022/12/17 15:57:23;;;;;;;73.07;39.67;;;-0.20;99.90;;;;;;5031780;28;20581;-61
2022/12/17 15:59:53;;;;;;;72.35;36.25;;;-0.20;99.90;;;;;;5011810;28;20140;-62
2022/12/17 16:02:18;;;;;;;67.85;35.13;;;-0.20;99.90;;;;;;5029981;28;20399;-61
2022/12/17 16:04:44;;;;;;;66.55;36.58;;;-0.20;99.90;;;;;;5029880;28;20052;-61
2022/12/17 16:07:10;;;;;;;69.97;36.30;;;-0.30;99.90;;;;;;5028966;28;20044;-61
2022/12/17 16:09:35;;;;;;;61.42;34.75;;;-0.30;99.90;;;;;;5031510;28;20073;-61
2022/12/17 16:12:01;;;;;;;68.07;34.65;;;-0.30;99.90;;;;;;5029759;28;20080;-59
2022/12/17 16:14:27;;;;;;;69.25;36.42;;;-0.30;99.90;;;;;;5030095;28;20092;-60
2022/12/17 16:16:52;;;;;;;64.95;36.85;;;-0.30;99.90;;;;;;5030161;28;20045;-60
2022/12/17 16:19:21;;;;;;;67.35;35.35;;;-0.30;99.90;;;;;;5029358;28;20064;-62
2022/12/17 16:21:47;;;;;;;61.28;34.38;;;-0.40;99.90;;;;;;5028079;28;20054;-61
2022/12/17 16:24:13;;;;;;;66.63;34.55;;;-0.30;99.90;;;;;;5029571;28;20067;-63
2022/12/17 16:26:38;;;;;;;70.38;36.38;;;-0.40;99.90;;;;;;5012238;28;20081;-62
2022/12/17 16:29:05;;;;;;;66.50;34.90;;;-0.40;99.90;;;;;;5028388;28;20405;-62
2022/12/17 16:31:32;;;;;;;66.05;34.25;;;-0.40;99.90;;;;;;5031102;28;20041;-62
2022/12/17 16:33:57;;;;;;;68.90;34.33;;;-0.40;99.90;;;;;;5030204;28;20072;-62
2022/12/17 16:36:23;;;;;;;68.15;36.17;;;-0.40;99.90;;;;;;5011483;28;21147;-62
2022/12/17 16:38:51;;;;;;;70.25;35.42;;;-0.40;99.90;;;;;;5031046;28;20044;-61
2022/12/17 16:41:18;;;;;;;64.68;33.88;;;-0.40;99.90;;;;;;5013223;28;20080;-62
2022/12/17 16:43:44;;;;;;;67.93;34.22;;;-0.50;99.90;;;;;;5028467;28;20045;-61
2022/12/17 16:46:27;;;;;;;69.97;34.60;;;-0.50;99.90;;;;;;5012313;28;20107;-62
2022/12/17 16:48:54;;;;;;;60.35;33.85;;;-0.50;99.90;;;;;;5026963;28;20473;-62
2022/12/17 16:51:21;;;;;;;74.78;36.25;;;-0.60;99.90;;;;;;5030031;28;20136;-62
2022/12/17 16:53:46;;;;;;;71.47;35.17;;;-0.50;99.90;;;;;;5030642;28;20099;-61
2022/12/17 16:56:20;;;;;;;64.45;35.42;;;-0.60;99.90;;;;;;5027863;28;20464;-62
2022/12/17 16:58:46;;;;;;;71.63;35.75;;;-0.60;99.90;;;;;;5028876;28;20038;-62
2022/12/17 17:01:16;;;;;;;77.93;39.03;;;-0.60;99.90;;;;;;5027848;28;20091;-62
2022/12/17 17:03:42;;;;;;;64.90;32.75;;;-0.60;99.90;;;;;;5027726;28;20041;-62
2022/12/17 17:06:09;;;;;;;66.60;34.75;;;-0.70;99.90;;;;;;5029337;28;20052;-61
2022/12/17 17:08:35;;;;;;;61.90;32.60;;;-0.70;99.90;;;;;;5028912;28;20041;-62
2022/12/17 17:11:08;;;;;;;68.65;33.53;;;-0.70;99.90;;;;;;5011546;28;20103;-62
2022/12/17 17:13:34;;;;;;;70.63;33.90;;;-0.70;99.90;;;;;;5030154;28;20052;-62
2022/12/17 17:16:00;;;;;;;60.17;34.25;;;-0.70;99.90;;;;;;5029651;28;20037;-62
2022/12/17 17:18:25;;;;;;;67.53;33.20;;;-0.70;99.90;;;;;;5027370;28;20049;-62
2022/12/17 17:20:51;;;;;;;65.97;34.15;;;-0.80;99.90;;;;;;5010278;28;20037;-62
2022/12/17 17:23:16;;;;;;;68.82;32.40;;;-0.80;99.90;;;;;;5011683;28;20090;-62
2022/12/17 17:25:42;;;;;;;59.08;31.85;;;-0.80;99.90;;;;;;5027321;28;20559;-62
2022/12/17 17:28:08;;;;;;;65.72;32.83;;;-0.80;99.90;;;;;;5027787;28;20057;-63
2022/12/17 17:30:34;;;;;;;73.45;35.42;;;-0.90;99.90;;;;;;5028476;28;20037;-62
2022/12/17 17:32:59;;;;;;;64.78;35.90;;;-0.90;99.90;;;;;;5011918;28;20064;-62
2022/12/17 17:35:25;;;;;;;67.72;31.95;;;-0.90;99.90;;;;;;5028708;28;20041;-62
2022/12/17 17:37:50;;;;;;;69.13;33.45;;;-0.90;99.90;;;;;;5028757;28;20052;-61
2022/12/17 17:40:16;;;;;;;70.05;34.58;;;-0.90;99.90;;;;;;5028440;28;20060;-62
2022/12/17 17:42:43;;;;;;;62.83;34.30;;;-0.90;99.90;;;;;;5028488;28;20049;-62
2022/12/17 17:45:09;;;;;;;71.47;34.35;;;-1.00;99.90;;;;;;5011422;28;20111;-62
2022/12/17 17:47:34;;;;;;;68.00;33.83;;;-1.00;99.90;;;;;;5028556;28;20037;-62
2022/12/17 17:50:00;;;;;;;73.03;35.03;;;-1.00;99.90;;;;;;5026853;28;20425;-62
2022/12/17 17:52:26;;;;;;;74.00;36.53;;;-1.00;99.90;;;;;;5026817;28;20037;-62
2022/12/17 17:54:51;;;;;;;66.68;32.75;;;-1.00;99.90;;;;;;5028642;28;20053;-62
2022/12/17 17:57:17;;;;;;;69.95;32.67;;;-1.00;99.90;;;;;;5027313;28;20574;-62
2022/12/17 17:59:43;;;;;;;68.55;35.60;;;-1.00;99.90;;;;;;5027275;28;20086;-62
2022/12/17 18:02:09;;;;;;;67.30;32.55;;;-1.10;99.90;;;;;;5022850;28;20132;-62
2022/12/17 18:04:35;;;;;;;73.35;35.33;;;-1.10;99.90;;;;;;5029347;28;20038;-63
2022/12/17 18:07:01;;;;;;;63.17;32.35;;;-1.10;99.90;;;;;;5026351;28;20049;-63
2022/12/17 18:09:26;;;;;;;67.28;35.90;;;-1.10;99.90;;;;;;5027759;28;20052;-62
2022/12/17 18:11:52;;;;;;;67.20;33.83;;;-1.10;99.90;;;;;;5029107;28;20041;-62
2022/12/17 18:14:18;;;;;;;71.35;34.10;;;-1.10;99.90;;;;;;5026462;28;20547;-62
2022/12/17 18:16:46;;;;;;;75.32;36.70;;;-1.10;99.90;;;;;;5026911;28;20105;-62
2022/12/17 18:19:16;;;;;;;69.35;33.33;;;-1.20;99.90;;;;;;5027417;28;20486;-62
2022/12/17 18:21:43;;;;;;;69.53;34.10;;;-1.20;99.90;;;;;;5024098;28;20057;-62
2022/12/17 18:24:21;;;;;;;68.38;32.00;;;-1.20;99.90;;;;;;5038285;28;20079;-62
2022/12/17 18:26:49;;;;;;;76.53;34.95;;;-1.20;99.90;;;;;;5051617;28;20489;-62
2022/12/17 18:29:16;;;;;;;64.07;31.90;;;-1.20;99.90;;;;;;5030510;28;20119;-62
2022/12/17 18:31:42;;;;;;;68.38;33.55;;;-1.20;99.90;;;;;;5030547;28;20037;-62
2022/12/17 18:34:11;;;;;;;71.30;34.53;;;-1.20;99.90;;;;;;5030828;28;20039;-62
2022/12/17 18:36:39;;;;;;;73.78;36.85;;;-1.20;99.90;;;;;;5048186;28;20133;-63
2022/12/17 18:39:14;;;;;;;67.25;32.78;;;-1.20;99.90;;;;;;5034126;28;20453;-61
2022/12/17 18:44:25;;;;;;;69.85;33.03;;;-1.20;99.90;;;;;;5047560;28;20090;-62
2022/12/17 18:46:51;;;;;;;63.10;31.42;;;-1.30;99.90;;;;;;5062162;28;20084;-62
2022/12/17 18:49:18;;;;;;;69.70;32.85;;;-1.30;99.90;;;;;;5067380;28;20048;-62
2022/12/17 18:51:46;;;;;;;65.28;32.92;;;-1.30;99.90;;;;;;5069139;28;20033;-62
2022/12/17 18:54:25;;;;;;;69.30;33.75;;;-1.30;99.90;;;;;;5067902;28;20040;-62
2022/12/17 18:56:53;;;;;;;67.00;34.67;;;-1.30;99.90;;;;;;5068419;28;20052;-63
2022/12/17 18:59:21;;;;;;;65.13;32.90;;;-1.40;99.90;;;;;;5067191;28;20049;-62
2022/12/17 19:01:48;;;;;;;68.45;34.00;;;-1.40;99.90;;;;;;5055086;28;20045;-62
2022/12/17 19:04:17;;;;;;;70.72;34.15;;;-1.40;99.90;;;;;;5045916;28;20485;-62
2022/12/17 19:06:44;;;;;;;65.70;32.47;;;-1.40;99.90;;;;;;5053799;28;20055;-62
2022/12/17 19:09:26;;;;;;;70.40;32.22;;;-1.40;99.90;;;;;;5035538;28;20092;-62
2022/12/17 19:11:52;;;;;;;72.15;33.92;;;-1.40;99.90;;;;;;5046450;28;20045;-62
2022/12/17 19:14:20;;;;;;;70.95;32.45;;;-1.40;99.90;;;;;;5046275;28;20045;-62
2022/12/17 19:16:47;;;;;;;65.90;34.88;;;-1.40;99.90;;;;;;5046349;28;20452;-63
2022/12/17 19:19:13;;;;;;;69.50;34.30;;;-1.40;99.90;;;;;;5040398;28;20087;-62
2022/12/17 19:21:40;;;;;;;66.55;34.20;;;-1.40;99.90;;;;;;5018985;28;20131;-63
2022/12/17 19:24:10;;;;;;;68.60;33.45;;;-1.40;99.90;;;;;;5045830;28;20390;-63
2022/12/17 19:26:36;;;;;;;79.57;36.95;;;-1.40;99.90;;;;;;5038064;28;20049;-62
2022/12/17 19:29:02;;;;;;;73.93;34.50;;;-1.40;99.90;;;;;;5039954;28;20041;-63
2022/12/17 19:31:29;;;;;;;72.00;36.83;;;-1.50;99.90;;;;;;5028373;28;20116;-61
2022/12/17 19:33:57;;;;;;;73.28;33.58;;;-1.40;99.90;;;;;;5029998;28;20048;-62
2022/12/17 19:36:24;;;;;;;70.32;34.42;;;-1.50;99.90;;;;;;5020153;28;20052;-61
2022/12/17 19:38:52;;;;;;;79.15;35.17;;;-1.50;99.90;;;;;;5001307;28;20091;-62
2022/12/17 19:41:18;;;;;;;74.38;35.28;;;-1.50;99.90;;;;;;5029571;28;20044;-62
2022/12/17 19:43:45;;;;;;;74.60;32.88;;;-1.50;99.90;;;;;;5020398;28;20057;-62
2022/12/17 19:46:17;;;;;;;86.60;39.72;;;-1.50;99.90;;;;;;5022326;28;20080;-62
2022/12/17 19:48:44;;;;;;;73.50;36.45;;;-1.50;99.90;;;;;;5024149;28;20134;-63
2022/12/17 19:51:11;;;;;;;81.15;37.85;;;-1.60;99.90;;;;;;5033531;28;20558;-62
2022/12/17 19:53:39;;;;;;;81.78;38.85;;;-1.60;99.90;;;;;;5016745;28;20145;-62
2022/12/17 19:56:10;;;;;;;63.88;33.10;;;-1.60;99.90;;;;;;5012550;28;20057;-62
2022/12/17 19:58:36;;;;;;;71.45;37.08;;;-1.60;99.90;;;;;;5016127;28;20049;-62
2022/12/17 20:01:13;;;;;;;76.35;37.33;;;-1.60;99.90;;;;;;5020936;28;20418;-62
2022/12/17 20:03:40;;;;;;;84.85;37.53;;;-1.60;99.90;;;;;;5011119;28;20052;-62
2022/12/17 20:06:07;;;;;;;89.63;40.50;;;-1.70;99.90;;;;;;5012132;28;20092;-62
2022/12/17 20:08:33;;;;;;;75.28;36.70;;;-1.70;99.90;;;;;;5025564;28;20091;-62
2022/12/17 20:11:00;;;;;;;76.57;35.72;;;-1.70;99.90;;;;;;5018025;28;20048;-62
2022/12/17 20:13:27;;;;;;;69.82;34.88;;;-1.70;99.90;;;;;;5006127;28;20073;-62
2022/12/17 20:16:00;;;;;;;70.22;35.00;;;-1.70;99.90;;;;;;5012243;28;20044;-62
2022/12/17 20:18:25;;;;;;;69.53;34.60;;;-1.80;99.90;;;;;;5026377;28;20049;-62
2022/12/17 20:20:51;;;;;;;74.30;34.75;;;-1.80;99.90;;;;;;4999516;28;20057;-62
2022/12/17 20:23:16;;;;;;;78.00;35.42;;;-1.80;99.90;;;;;;5016638;28;20045;-62
2022/12/17 20:25:42;;;;;;;70.47;32.67;;;-1.80;99.90;;;;;;5028650;28;20063;-62
2022/12/17 20:28:08;;;;;;;65.50;31.88;;;-1.80;99.90;;;;;;5028649;28;20136;-62
2022/12/17 20:30:33;;;;;;;65.22;33.72;;;-1.80;99.90;;;;;;5013093;28;20045;-62
2022/12/17 20:32:59;;;;;;;69.28;32.75;;;-1.80;99.90;;;;;;5029244;28;20030;-62
2022/12/17 20:35:25;;;;;;;67.85;31.95;;;-1.80;99.90;;;;;;5028041;28;20037;-62
2022/12/17 20:37:50;;;;;;;76.55;34.03;;;-1.80;99.90;;;;;;5029384;28;20041;-62
2022/12/17 20:40:16;;;;;;;69.85;34.13;;;-1.80;99.90;;;;;;5028577;28;20045;-62
2022/12/17 20:43:13;;;;;;;73.13;33.38;;;-1.80;99.90;;;;;;5011796;28;20053;-62
2022/12/17 20:45:50;;;;;;;69.13;31.63;;;-1.80;99.90;;;;;;5029264;28;20052;-62
2022/12/17 20:48:17;;;;;;;66.32;33.25;;;-1.80;99.90;;;;;;5029768;28;20042;-62
2022/12/17 20:50:43;;;;;;;69.60;31.95;;;-1.80;99.90;;;;;;5028607;28;20554;-62
2022/12/17 20:53:09;;;;;;;67.45;32.90;;;-1.80;99.90;;;;;;5027982;28;20125;-62
2022/12/17 20:55:35;;;;;;;69.22;33.53;;;-1.80;99.90;;;;;;5029931;28;20140;-62
2022/12/17 20:58:01;;;;;;;71.32;32.05;;;-1.80;99.90;;;;;;5029153;28;20045;-62
2022/12/17 21:00:26;;;;;;;75.70;34.88;;;-1.80;99.90;;;;;;5028055;28;20068;-62
2022/12/17 21:02:52;;;;;;;67.30;33.42;;;-1.80;99.90;;;;;;5027696;28;20049;-62
2022/12/17 21:05:18;;;;;;;61.53;31.58;;;-1.80;99.90;;;;;;5012045;28;20087;-62
2022/12/17 21:07:44;;;;;;;67.53;32.90;;;-1.80;99.90;;;;;;5029603;28;20045;-62
2022/12/17 21:10:11;;;;;;;65.43;33.38;;;-1.90;99.90;;;;;;5028707;28;20463;-62
2022/12/17 21:15:21;;;;;;;63.17;31.92;;;-1.90;99.90;;;;;;5028089;28;20176;-62
2022/12/17 21:17:47;;;;;;;67.15;31.67;;;-1.90;99.90;;;;;;5028592;28;20110;-62
2022/12/17 21:20:12;;;;;;;64.30;33.05;;;-1.90;99.90;;;;;;5027005;28;20041;-62
2022/12/17 21:22:40;;;;;;;62.85;31.05;;;-1.90;99.90;;;;;;5030038;28;20046;-62
2022/12/17 21:25:06;;;;;;;69.65;32.38;;;-1.90;99.90;;;;;;5051864;28;20061;-62
2022/12/17 21:27:33;;;;;;;62.22;30.08;;;-2.00;99.90;;;;;;5048988;28;20053;-62
2022/12/17 21:29:59;;;;;;;64.07;32.53;;;-2.00;99.90;;;;;;5030816;28;20036;-63
2022/12/17 21:32:24;;;;;;;69.55;33.00;;;-2.00;99.90;;;;;;5048154;28;20500;-62
2022/12/17 21:34:50;;;;;;;73.35;34.30;;;-1.90;99.90;;;;;;5049346;28;20108;-62
2022/12/17 21:37:15;;;;;;;67.90;33.75;;;-1.90;99.90;;;;;;5030532;28;20041;-62
2022/12/17 21:39:41;;;;;;;70.22;31.45;;;-2.00;99.90;;;;;;5047132;28;20053;-62
2022/12/17 21:44:51;;;;;;;67.13;33.78;;;-2.00;99.90;;;;;;5047057;28;20064;-62
2022/12/17 21:47:16;;;;;;;59.88;30.90;;;-2.00;99.90;;;;;;5047282;28;20045;-62
2022/12/17 21:49:42;;;;;;;70.85;33.03;;;-2.00;99.90;;;;;;5048400;28;20033;-62
2022/12/17 21:52:08;;;;;;;66.65;33.25;;;-2.00;99.90;;;;;;5047433;28;20040;-62
2022/12/17 21:54:33;;;;;;;58.08;30.02;;;-2.00;99.90;;;;;;5047795;28;20119;-62
2022/12/17 21:56:59;;;;;;;68.90;33.03;;;-2.00;99.90;;;;;;5049132;28;20052;-62
2022/12/17 21:59:25;;;;;;;69.78;33.35;;;-2.10;99.90;;;;;;5048723;28;20064;-61
2022/12/17 22:01:52;;;;;;;69.10;32.42;;;-2.00;99.90;;;;;;5033066;28;20091;-62
2022/12/17 22:04:18;;;;;;;70.10;35.20;;;-2.00;99.90;;;;;;5046633;28;20044;-62
2022/12/17 22:06:43;;;;;;;66.47;32.45;;;-2.00;99.90;;;;;;5047237;28;20044;-62
2022/12/17 22:09:09;;;;;;;63.05;29.30;;;-2.00;99.90;;;;;;5047278;28;20033;-62
2022/12/17 22:11:35;;;;;;;65.78;31.05;;;-2.00;99.90;;;;;;5047303;28;20515;-62
2022/12/17 22:14:01;;;;;;;64.30;32.08;;;-2.10;99.90;;;;;;5047682;28;20036;-62
2022/12/17 22:16:47;;;;;;;59.10;29.75;;;-2.10;99.90;;;;;;5045639;28;20052;-62
2022/12/17 22:19:19;;;;;;;66.20;33.22;;;-2.10;99.90;;;;;;5047930;28;20036;-62
2022/12/17 22:21:46;;;;;;;68.80;34.95;;;-2.10;99.90;;;;;;5045014;28;20468;-62
2022/12/17 22:24:18;;;;;;;66.20;32.65;;;-2.10;99.90;;;;;;5041725;28;20097;-62
2022/12/17 22:26:44;;;;;;;66.60;31.75;;;-2.10;99.90;;;;;;5025676;28;20072;-62
2022/12/17 22:29:10;;;;;;;62.92;32.45;;;-2.10;99.90;;;;;;5028368;28;20208;-62
2022/12/17 22:34:22;;;;;;;64.05;31.25;;;-2.10;99.90;;;;;;4994803;28;20081;-62
2022/12/17 22:36:48;;;;;;;67.35;33.83;;;-2.10;99.90;;;;;;5026746;28;20088;-62
2022/12/17 22:39:15;;;;;;;68.30;32.67;;;-2.20;99.90;;;;;;5025187;28;20069;-62
2022/12/17 22:44:25;;;;;;;64.63;31.92;;;-2.20;99.90;;;;;;5027052;28;20041;-62
2022/12/17 22:46:52;;;;;;;70.30;33.95;;;-2.20;99.90;;;;;;5027180;28;20052;-62
2022/12/17 22:49:18;;;;;;;71.30;34.35;;;-2.20;99.90;;;;;;5009831;28;20095;-62
2022/12/17 22:51:44;;;;;;;73.10;35.05;;;-2.20;99.90;;;;;;5028838;28;20048;-62
2022/12/17 22:54:11;;;;;;;66.53;33.30;;;-2.20;99.90;;;;;;5027697;28;20128;-62
2022/12/17 22:56:39;;;;;;;68.63;31.92;;;-2.20;99.90;;;;;;5027530;28;20386;-62
2022/12/17 22:59:05;;;;;;;70.88;31.38;;;-2.20;99.90;;;;;;5028415;28;20069;-62
2022/12/17 23:01:31;;;;;;;60.58;29.33;;;-2.20;99.90;;;;;;5033420;28;20521;-62
2022/12/17 23:03:59;;;;;;;69.82;33.65;;;-2.20;99.90;;;;;;5035130;28;20474;-62
2022/12/17 23:06:26;;;;;;;63.45;31.70;;;-2.20;99.90;;;;;;5033950;28;20363;-62
2022/12/17 23:08:52;;;;;;;62.78;31.02;;;-2.20;99.90;;;;;;5033204;28;20453;-62
2022/12/17 23:11:22;;;;;;;62.38;31.48;;;-2.20;99.90;;;;;;5035088;28;20042;-62
2022/12/17 23:13:48;;;;;;;65.43;30.23;;;-2.20;99.90;;;;;;5033760;28;20125;-62
2022/12/17 23:16:14;;;;;;;68.13;31.70;;;-2.20;99.90;;;;;;5033114;28;20113;-62
2022/12/17 23:18:41;;;;;;;67.78;31.90;;;-2.20;99.90;;;;;;5035208;28;20037;-62
2022/12/17 23:21:10;;;;;;;63.22;30.77;;;-2.20;99.90;;;;;;5033534;28;20566;-62
2022/12/17 23:23:36;;;;;;;61.22;31.35;;;-2.20;99.90;;;;;;5034260;28;20049;-62
2022/12/17 23:26:09;;;;;;;66.40;34.40;;;-2.20;99.90;;;;;;5075113;28;20088;-62
2022/12/17 23:28:35;;;;;;;64.00;31.85;;;-2.20;99.90;;;;;;5073882;28;20049;-62
2022/12/17 23:31:09;;;;;;;63.47;34.38;;;-2.20;99.90;;;;;;5039330;28;20397;-62
2022/12/17 23:33:35;;;;;;;67.38;33.90;;;-2.20;99.90;;;;;;5073731;28;20474;-62
2022/12/17 23:36:03;;;;;;;68.15;33.97;;;-2.20;99.90;;;;;;5073162;28;20032;-62
2022/12/17 23:38:29;;;;;;;66.03;32.08;;;-2.20;99.90;;;;;;5055801;28;20045;-62
2022/12/17 23:41:01;;;;;;;68.55;31.95;;;-2.10;99.90;;;;;;5074460;28;20051;-62
2022/12/17 23:43:29;;;;;;;71.07;32.83;;;-2.20;99.90;;;;;;5056359;28;20048;-62
2022/12/17 23:45:54;;;;;;;76.45;36.13;;;-2.20;99.90;;;;;;5073869;28;20094;-62
2022/12/17 23:48:20;;;;;;;73.78;34.35;;;-2.20;99.90;;;;;;5074092;28;20048;-62
2022/12/17 23:50:45;;;;;;;72.60;33.38;;;-2.20;99.90;;;;;;5072357;28;20048;-62
2022/12/17 23:53:11;;;;;;;63.90;32.67;;;-2.20;99.90;;;;;;5073036;28;20043;-62
2022/12/17 23:55:37;;;;;;;77.70;34.28;;;-2.20;99.90;;;;;;5056460;28;20119;-62
2022/12/17 23:58:02;;;;;;;66.80;34.35;;;-2.20;99.90;;;;;;5038867;28;20075;-62
